Time;durP1;ratioP1;P1;durP2;ratioP2;P2;SDS_P1;SDS_P2;PMS_P1;PMS_P2;Temp;Humidity;BMP_temperature;BMP_pressure;BME280_temperature;BME280_humidity;BME280_pressure;Samples;Min_cycle;Max_cycle;Signal;HPM_P1;HPM_P2
2022/10/29 00:00:47;;;;;;;10.63;3.65;;;12.10;99.90;;;;;;7366279;19;20018;-51
2022/10/29 00:03:13;;;;;;;7.68;3.50;;;12.10;99.90;;;;;;7368294;19;20078;-60
2022/10/29 00:05:40;;;;;;;11.07;4.90;;;12.10;99.90;;;;;;7362822;19;20014;-60
2022/10/29 00:08:06;;;;;;;7.32;4.68;;;12.00;99.90;;;;;;7367653;19;20019;-53
2022/10/29 00:10:32;;;;;;;9.75;4.97;;;12.00;99.90;;;;;;7365452;19;20030;-53
2022/10/29 00:13:01;;;;;;;9.60;4.35;;;12.10;99.90;;;;;;7366365;19;20719;-52
2022/10/29 00:15:27;;;;;;;8.00;4.65;;;12.00;99.90;;;;;;7369225;19;20018;-52
2022/10/29 00:17:54;;;;;;;12.23;5.13;;;12.00;99.90;;;;;;7369804;19;20509;-53
2022/10/29 00:20:20;;;;;;;13.10;5.10;;;12.00;99.90;;;;;;7366845;19;20022;-51
2022/10/29 00:22:47;;;;;;;13.45;5.88;;;12.10;99.90;;;;;;7364023;19;20014;-50
2022/10/29 00:25:13;;;;;;;11.40;6.03;;;12.00;99.90;;;;;;7366560;19;20130;-49
2022/10/29 00:27:39;;;;;;;9.38;5.00;;;12.10;99.90;;;;;;7367795;19;20019;-54
2022/10/29 00:30:06;;;;;;;14.45;5.70;;;12.00;99.90;;;;;;7369469;19;20090;-52
2022/10/29 00:32:32;;;;;;;9.52;4.70;;;12.00;99.90;;;;;;7364345;19;20022;-54
2022/10/29 00:34:58;;;;;;;9.07;5.07;;;12.00;99.90;;;;;;7370531;19;20513;-54
2022/10/29 00:37:25;;;;;;;10.38;4.00;;;11.90;99.90;;;;;;7366358;19;20561;-52
2022/10/29 00:39:51;;;;;;;9.38;4.78;;;11.90;99.90;;;;;;7363590;19;20026;-50
2022/10/29 00:42:17;;;;;;;11.82;4.53;;;11.90;99.90;;;;;;7361207;19;20457;-49
2022/10/29 00:44:43;;;;;;;12.63;5.18;;;11.90;99.90;;;;;;7360950;19;20043;-61
2022/10/29 00:47:18;;;;;;;13.52;5.20;;;11.90;99.90;;;;;;7365968;19;20086;-61
2022/10/29 00:49:47;;;;;;;10.90;5.18;;;11.80;99.90;;;;;;7362403;19;20019;-61
2022/10/29 00:52:18;;;;;;;8.27;4.80;;;11.80;99.90;;;;;;7362417;19;20650;-61
2022/10/29 00:54:46;;;;;;;12.15;4.95;;;11.80;99.90;;;;;;7366417;19;20011;-62
2022/10/29 00:57:18;;;;;;;14.50;5.82;;;11.80;99.90;;;;;;7363285;19;20085;-62
2022/10/29 00:59:46;;;;;;;10.20;5.43;;;11.70;99.90;;;;;;7365471;19;20086;-61
2022/10/29 01:02:12;;;;;;;8.70;4.63;;;11.70;99.90;;;;;;7364130;19;20023;-61
2022/10/29 01:04:39;;;;;;;12.55;5.10;;;11.70;99.90;;;;;;7364596;19;20027;-61
2022/10/29 01:07:05;;;;;;;13.65;5.53;;;11.70;99.90;;;;;;7363428;19;20074;-61
2022/10/29 01:09:32;;;;;;;13.35;5.28;;;11.60;99.90;;;;;;7369367;19;20035;-61
2022/10/29 01:12:17;;;;;;;11.55;4.82;;;11.60;99.90;;;;;;7363370;19;20345;-61
2022/10/29 01:15:16;;;;;;;11.75;4.97;;;11.50;99.90;;;;;;7365343;19;20023;-60
2022/10/29 01:17:54;;;;;;;14.52;4.43;;;11.50;99.90;;;;;;7358446;19;21868;-60
2022/10/29 01:20:20;;;;;;;8.80;4.72;;;11.50;99.90;;;;;;7369681;19;20022;-61
2022/10/29 01:23:25;;;;;;;12.00;4.78;;;11.40;99.90;;;;;;7364900;19;20026;-60
2022/10/29 01:26:15;;;;;;;10.73;4.32;;;11.40;99.90;;;;;;7363598;19;20046;-61
2022/10/29 01:28:41;;;;;;;10.98;4.35;;;11.40;99.90;;;;;;7362300;19;20117;-60
2022/10/29 01:31:30;;;;;;;10.60;5.43;;;11.30;99.90;;;;;;7369830;19;20021;-60
2022/10/29 01:34:09;;;;;;;10.25;4.43;;;11.30;99.90;;;;;;7369941;19;20022;-61
2022/10/29 01:37:13;;;;;;;30.42;6.10;;;11.30;99.90;;;;;;7364422;19;20056;-60
2022/10/29 01:39:49;;;;;;;15.80;5.00;;;11.20;99.90;;;;;;7365359;19;20454;-61
2022/10/29 01:42:15;;;;;;;9.45;4.32;;;11.20;99.90;;;;;;7368218;19;20022;-53
2022/10/29 01:44:59;;;;;;;9.68;4.43;;;11.10;99.90;;;;;;7365086;19;21306;-54
2022/10/29 01:47:31;;;;;;;25.55;5.57;;;11.10;99.90;;;;;;7367681;19;20026;-54
2022/10/29 01:50:01;;;;;;;26.65;5.55;;;11.10;99.90;;;;;;7367319;19;20022;-53
2022/10/29 01:52:31;;;;;;;10.98;5.65;;;11.10;99.90;;;;;;7367384;19;20014;-61
2022/10/29 01:54:57;;;;;;;11.65;5.13;;;11.00;99.90;;;;;;7367086;19;20441;-50
2022/10/29 01:57:27;;;;;;;13.10;5.90;;;11.00;99.90;;;;;;7361362;19;20025;-53
2022/10/29 01:59:57;;;;;;;15.48;5.45;;;11.00;99.90;;;;;;7369868;19;20018;-53
2022/10/29 02:02:38;;;;;;;11.90;5.63;;;11.00;99.90;;;;;;7368270;19;20620;-53
2022/10/29 02:05:27;;;;;;;10.05;6.43;;;11.00;99.90;;;;;;7370868;19;20356;-53
2022/10/29 02:07:55;;;;;;;15.00;6.20;;;11.00;99.90;;;;;;7369791;19;20014;-50
2022/10/29 02:10:48;;;;;;;12.32;7.35;;;11.00;99.90;;;;;;7371293;19;20022;-53
2022/10/29 02:13:17;;;;;;;23.00;8.07;;;11.00;99.90;;;;;;7374517;19;20047;-50
2022/10/29 02:15:51;;;;;;;16.33;7.30;;;10.90;99.90;;;;;;7369374;19;20021;-51
2022/10/29 02:18:18;;;;;;;12.93;6.10;;;10.90;99.90;;;;;;7372939;19;20019;-49
2022/10/29 02:20:46;;;;;;;20.27;7.38;;;10.90;99.90;;;;;;7374356;19;20054;-55
2022/10/29 02:23:15;;;;;;;15.35;7.47;;;10.80;99.90;;;;;;7374675;19;20019;-53
2022/10/29 02:25:41;;;;;;;17.77;6.95;;;10.90;99.90;;;;;;7368208;19;20015;-52
2022/10/29 02:28:07;;;;;;;15.65;7.53;;;10.80;99.90;;;;;;7373715;19;20078;-53
2022/10/29 02:30:34;;;;;;;20.63;7.90;;;10.80;99.90;;;;;;7373308;19;20019;-53
2022/10/29 02:33:00;;;;;;;16.35;8.52;;;10.90;99.90;;;;;;7376098;19;20111;-53
2022/10/29 02:35:26;;;;;;;27.92;8.55;;;10.90;99.90;;;;;;7374809;19;20065;-49
2022/10/29 02:37:52;;;;;;;50.08;10.32;;;10.90;99.90;;;;;;7372395;19;20022;-53
2022/10/29 02:40:18;;;;;;;21.95;8.52;;;10.90;99.90;;;;;;7368783;19;20474;-60
2022/10/29 02:42:44;;;;;;;17.50;9.13;;;10.90;99.90;;;;;;7368448;19;20048;-60
2022/10/29 02:45:11;;;;;;;21.00;9.18;;;10.90;99.90;;;;;;7372217;19;20046;-61
2022/10/29 02:47:37;;;;;;;21.15;8.25;;;10.90;99.90;;;;;;7370825;19;20023;-62
2022/10/29 02:50:03;;;;;;;28.27;10.10;;;10.80;99.90;;;;;;7371982;19;20020;-60
2022/10/29 02:52:29;;;;;;;37.72;10.18;;;10.80;99.90;;;;;;7373776;19;20039;-60
2022/10/29 02:54:55;;;;;;;23.85;8.27;;;10.80;99.90;;;;;;7372984;19;20022;-50
2022/10/29 02:57:22;;;;;;;25.25;9.10;;;10.80;99.90;;;;;;7372323;19;20043;-60
2022/10/29 02:59:48;;;;;;;21.25;9.73;;;10.80;99.90;;;;;;7377779;19;20361;-60
2022/10/29 03:02:14;;;;;;;20.60;7.82;;;10.80;99.90;;;;;;7370895;19;20014;-60
2022/10/29 03:04:43;;;;;;;24.05;8.05;;;10.70;99.90;;;;;;7374778;19;20019;-60
2022/10/29 03:07:09;;;;;;;19.15;7.10;;;10.70;99.90;;;;;;7372022;19;20082;-61
2022/10/29 03:09:35;;;;;;;18.08;5.70;;;10.70;99.90;;;;;;7372786;19;20022;-51
2022/10/29 03:12:05;;;;;;;13.70;7.30;;;10.70;99.90;;;;;;7369865;19;20033;-50
2022/10/29 03:14:31;;;;;;;14.43;6.82;;;10.70;99.90;;;;;;7369593;19;20052;-51
2022/10/29 03:16:58;;;;;;;10.43;6.30;;;10.70;99.90;;;;;;7372779;19;20016;-49
2022/10/29 03:19:24;;;;;;;15.07;7.32;;;10.70;99.90;;;;;;7371952;19;20110;-60
2022/10/29 03:21:50;;;;;;;15.25;6.95;;;10.80;99.90;;;;;;7376622;19;20033;-60
2022/10/29 03:24:16;;;;;;;20.42;7.60;;;10.80;99.90;;;;;;7374534;19;20027;-48
2022/10/29 03:26:43;;;;;;;18.52;8.05;;;10.80;99.90;;;;;;7377662;19;20023;-53
2022/10/29 03:29:09;;;;;;;18.30;7.85;;;10.80;99.90;;;;;;7373891;19;20021;-54
2022/10/29 03:31:35;;;;;;;16.75;7.88;;;10.90;99.90;;;;;;7375063;19;20022;-52
2022/10/29 03:34:01;;;;;;;17.63;8.45;;;10.90;99.90;;;;;;7375981;19;20037;-61
2022/10/29 03:36:29;;;;;;;23.88;8.73;;;10.90;99.90;;;;;;7376068;19;20015;-61
2022/10/29 03:38:55;;;;;;;18.65;7.50;;;10.90;99.90;;;;;;7372527;19;20394;-61
2022/10/29 03:41:21;;;;;;;18.27;8.30;;;11.00;99.90;;;;;;7370119;19;20037;-61
2022/10/29 03:43:47;;;;;;;17.73;8.70;;;11.00;99.90;;;;;;7374903;19;20541;-61
2022/10/29 03:46:14;;;;;;;13.98;8.32;;;11.00;99.90;;;;;;7372936;19;20482;-61
2022/10/29 03:48:40;;;;;;;25.52;8.68;;;11.00;99.90;;;;;;7373002;19;20054;-60
2022/10/29 03:51:07;;;;;;;15.45;8.95;;;11.10;99.90;;;;;;7373477;19;20511;-49
2022/10/29 03:53:35;;;;;;;24.13;10.05;;;11.10;99.90;;;;;;7373705;19;20018;-61
2022/10/29 03:56:02;;;;;;;14.43;7.90;;;11.10;99.90;;;;;;7377131;19;20118;-61
2022/10/29 03:58:28;;;;;;;17.02;9.35;;;11.20;99.90;;;;;;7373444;19;20115;-61
2022/10/29 04:00:55;;;;;;;20.40;9.27;;;11.20;99.90;;;;;;7369171;19;20699;-60
2022/10/29 04:03:21;;;;;;;17.90;8.88;;;11.30;99.90;;;;;;7373186;19;20584;-61
2022/10/29 04:05:47;;;;;;;16.10;9.48;;;11.30;99.90;;;;;;7371125;19;20026;-62
2022/10/29 04:08:14;;;;;;;13.93;8.60;;;11.40;99.90;;;;;;7375830;19;20530;-61
2022/10/29 04:10:47;;;;;;;19.25;9.05;;;11.40;99.90;;;;;;7374755;19;20118;-60
2022/10/29 04:13:14;;;;;;;15.82;10.00;;;11.40;99.90;;;;;;7372935;19;20369;-60
2022/10/29 04:15:41;;;;;;;14.95;9.48;;;11.40;99.90;;;;;;7375988;19;20450;-61
2022/10/29 04:18:08;;;;;;;14.18;8.90;;;11.50;99.90;;;;;;7376482;19;20097;-61
2022/10/29 04:20:35;;;;;;;13.85;8.98;;;11.50;99.90;;;;;;7374706;19;20035;-61
2022/10/29 04:23:02;;;;;;;13.10;9.05;;;11.60;99.90;;;;;;7369823;19;20094;-61
2022/10/29 04:25:28;;;;;;;11.60;8.90;;;11.60;99.90;;;;;;7370977;19;20457;-61
2022/10/29 04:27:55;;;;;;;12.88;7.97;;;11.60;99.90;;;;;;7371326;19;20022;-61
2022/10/29 04:30:22;;;;;;;12.88;9.35;;;11.70;99.90;;;;;;7369634;19;20025;-61
2022/10/29 04:32:49;;;;;;;10.80;7.63;;;11.70;99.90;;;;;;7372542;19;20034;-61
2022/10/29 04:35:15;;;;;;;13.43;9.00;;;11.70;99.90;;;;;;7370659;19;20014;-61
2022/10/29 04:37:41;;;;;;;10.45;8.40;;;11.80;99.90;;;;;;7371916;19;20028;-61
2022/10/29 04:40:08;;;;;;;17.05;10.20;;;11.80;99.90;;;;;;7373626;19;20014;-61
2022/10/29 04:42:38;;;;;;;18.90;10.30;;;11.80;99.90;;;;;;7372173;19;20549;-61
2022/10/29 04:45:06;;;;;;;17.48;10.20;;;11.90;99.90;;;;;;7369159;19;20025;-61
2022/10/29 04:47:32;;;;;;;18.25;10.57;;;11.90;99.90;;;;;;7371239;19;20529;-61
2022/10/29 04:49:59;;;;;;;18.38;11.45;;;11.90;99.90;;;;;;7372881;19;20022;-61
2022/10/29 04:52:25;;;;;;;17.85;11.35;;;11.90;99.90;;;;;;7371749;19;20034;-61
2022/10/29 04:54:51;;;;;;;22.35;12.45;;;11.90;99.90;;;;;;7367807;19;20025;-62
2022/10/29 04:57:17;;;;;;;24.45;12.10;;;12.00;99.90;;;;;;7370346;19;20026;-60
2022/10/29 04:59:43;;;;;;;15.98;11.48;;;12.00;99.90;;;;;;7369688;19;20019;-60
2022/10/29 05:02:10;;;;;;;17.98;12.20;;;12.10;99.90;;;;;;7372020;19;20043;-61
2022/10/29 05:04:36;;;;;;;15.93;12.60;;;12.10;99.90;;;;;;7367746;19;20029;-60
2022/10/29 05:07:02;;;;;;;14.98;11.77;;;12.10;99.90;;;;;;7371167;19;20022;-60
2022/10/29 05:09:28;;;;;;;22.73;13.23;;;12.20;99.90;;;;;;7370884;19;21453;-60
2022/10/29 05:11:54;;;;;;;18.75;12.27;;;12.20;99.90;;;;;;7368615;19;20029;-61
2022/10/29 05:14:21;;;;;;;17.77;12.75;;;12.20;99.90;;;;;;7370447;19;20079;-60
2022/10/29 05:16:47;;;;;;;17.67;10.82;;;12.20;99.90;;;;;;7371115;19;20090;-61
2022/10/29 05:19:14;;;;;;;21.60;11.93;;;12.20;99.90;;;;;;7370965;19;20093;-61
2022/10/29 05:21:40;;;;;;;19.45;11.85;;;12.30;99.90;;;;;;7372697;19;20575;-61
2022/10/29 05:24:07;;;;;;;25.10;12.85;;;12.30;99.90;;;;;;7373007;19;20022;-60
2022/10/29 05:26:33;;;;;;;23.23;12.40;;;12.30;99.90;;;;;;7372163;19;20118;-61
2022/10/29 05:28:59;;;;;;;23.85;12.52;;;12.30;99.90;;;;;;7368744;19;20457;-61
2022/10/29 05:31:25;;;;;;;23.70;11.50;;;12.30;99.90;;;;;;7370873;19;20018;-61
2022/10/29 05:33:51;;;;;;;27.55;14.13;;;12.30;99.90;;;;;;7370624;19;20379;-61
2022/10/29 05:36:17;;;;;;;32.58;15.38;;;12.20;99.90;;;;;;7372189;19;20563;-61
2022/10/29 05:38:44;;;;;;;33.08;15.82;;;12.20;99.90;;;;;;7378999;19;20065;-61
2022/10/29 05:41:10;;;;;;;27.08;13.32;;;12.30;99.90;;;;;;7376419;19;20030;-62
2022/10/29 05:43:36;;;;;;;35.97;14.40;;;12.30;99.90;;;;;;7377821;19;20581;-61
2022/10/29 05:46:03;;;;;;;29.77;14.45;;;12.30;99.90;;;;;;7377810;19;20367;-61
2022/10/29 05:48:29;;;;;;;32.08;14.82;;;12.30;99.90;;;;;;7377837;19;20014;-60
2022/10/29 05:50:58;;;;;;;37.78;15.68;;;12.30;99.90;;;;;;7375738;19;20019;-61
2022/10/29 05:53:25;;;;;;;47.45;17.80;;;12.30;99.90;;;;;;7377221;19;20022;-63
2022/10/29 05:55:51;;;;;;;34.28;16.13;;;12.30;99.90;;;;;;7374080;19;20019;-61
2022/10/29 05:58:17;;;;;;;39.05;17.85;;;12.30;99.90;;;;;;7376010;19;20052;-61
2022/10/29 06:00:44;;;;;;;40.15;17.95;;;12.30;99.90;;;;;;7376398;19;20023;-59
2022/10/29 06:03:21;;;;;;;49.08;17.42;;;12.30;99.90;;;;;;7377875;19;20022;-64
2022/10/29 06:05:49;;;;;;;34.00;17.50;;;12.30;99.90;;;;;;7373878;19;20035;-63
2022/10/29 06:08:16;;;;;;;39.38;16.48;;;12.30;99.90;;;;;;7378497;19;20070;-61
2022/10/29 06:10:43;;;;;;;35.65;15.95;;;12.30;99.90;;;;;;7376276;19;20444;-61
2022/10/29 06:13:11;;;;;;;67.63;18.75;;;12.30;99.90;;;;;;7374323;19;20128;-61
2022/10/29 06:15:37;;;;;;;53.28;17.48;;;12.30;99.90;;;;;;7374797;19;20015;-61
2022/10/29 06:18:04;;;;;;;46.97;17.67;;;12.30;99.90;;;;;;7375191;19;20026;-61
2022/10/29 06:20:31;;;;;;;57.97;19.52;;;12.30;99.90;;;;;;7375551;19;20027;-62
2022/10/29 06:22:58;;;;;;;43.00;18.83;;;12.30;99.90;;;;;;7377073;19;20090;-61
2022/10/29 06:25:25;;;;;;;41.55;17.25;;;12.30;99.90;;;;;;7374197;19;20324;-61
2022/10/29 06:28:04;;;;;;;32.70;18.55;;;12.30;99.90;;;;;;7376998;19;20022;-61
2022/10/29 06:30:32;;;;;;;69.47;18.88;;;12.30;99.90;;;;;;7374982;19;20453;-61
2022/10/29 06:32:59;;;;;;;32.65;17.80;;;12.30;99.90;;;;;;7374873;19;20535;-62
2022/10/29 06:35:27;;;;;;;51.67;18.17;;;12.30;99.90;;;;;;7377631;19;20020;-62
2022/10/29 06:37:53;;;;;;;40.17;18.15;;;12.30;99.90;;;;;;7377415;19;20010;-62
2022/10/29 06:40:20;;;;;;;38.55;16.95;;;12.20;99.90;;;;;;7376598;19;20095;-62
2022/10/29 06:42:46;;;;;;;32.00;17.85;;;12.20;99.90;;;;;;7376008;19;20389;-61
2022/10/29 06:45:13;;;;;;;33.53;17.67;;;12.20;99.90;;;;;;7375050;19;20023;-61
2022/10/29 06:47:43;;;;;;;34.83;19.70;;;12.20;99.90;;;;;;7376107;19;20635;-59
2022/10/29 06:50:12;;;;;;;34.63;19.42;;;12.30;99.90;;;;;;7377911;19;20030;-62
2022/10/29 06:52:39;;;;;;;39.58;18.65;;;12.30;99.90;;;;;;7376926;19;20014;-61
2022/10/29 06:55:06;;;;;;;26.90;19.27;;;12.30;99.90;;;;;;7378013;19;20348;-61
2022/10/29 06:57:32;;;;;;;31.77;19.13;;;12.30;99.90;;;;;;7377214;19;20445;-61
2022/10/29 06:59:59;;;;;;;34.45;19.92;;;12.40;99.90;;;;;;7376629;19;20038;-61
2022/10/29 07:02:25;;;;;;;33.38;20.83;;;12.40;99.90;;;;;;7377239;19;20019;-62
2022/10/29 07:04:51;;;;;;;28.35;17.92;;;12.40;99.90;;;;;;7372373;19;20019;-62
2022/10/29 07:07:18;;;;;;;32.63;18.80;;;12.40;99.90;;;;;;7376003;19;20015;-61
2022/10/29 07:09:44;;;;;;;33.05;19.73;;;12.50;99.90;;;;;;7375260;19;20018;-63
2022/10/29 07:12:11;;;;;;;31.77;19.17;;;12.50;99.90;;;;;;7375977;19;20050;-61
2022/10/29 07:14:37;;;;;;;35.13;20.85;;;12.50;99.90;;;;;;7375270;19;20030;-61
2022/10/29 07:17:03;;;;;;;30.15;18.35;;;12.60;99.90;;;;;;7374167;19;20456;-61
2022/10/29 07:19:30;;;;;;;28.80;18.50;;;12.60;99.90;;;;;;7375786;19;20074;-61
2022/10/29 07:21:57;;;;;;;37.20;19.50;;;12.60;99.90;;;;;;7370354;19;20129;-61
2022/10/29 07:24:23;;;;;;;30.90;18.52;;;12.60;99.90;;;;;;7376610;19;20038;-61
2022/10/29 07:26:50;;;;;;;30.08;18.60;;;12.60;99.90;;;;;;7375725;19;20022;-61
2022/10/29 07:29:16;;;;;;;27.70;18.52;;;12.60;99.90;;;;;;7374040;19;20497;-61
2022/10/29 07:31:42;;;;;;;27.25;18.25;;;12.60;99.90;;;;;;7372369;19;20022;-62
2022/10/29 07:34:09;;;;;;;28.85;17.73;;;12.60;99.90;;;;;;7370360;19;20015;-61
2022/10/29 07:36:35;;;;;;;24.95;17.27;;;12.70;99.90;;;;;;7376376;19;20055;-61
2022/10/29 07:39:02;;;;;;;26.33;16.70;;;12.70;99.90;;;;;;7373817;19;20609;-61
2022/10/29 07:41:29;;;;;;;24.98;17.58;;;12.70;99.90;;;;;;7373762;19;20019;-61
2022/10/29 07:43:55;;;;;;;23.73;16.90;;;12.70;99.90;;;;;;7370019;19;20504;-61
2022/10/29 07:46:22;;;;;;;28.10;18.40;;;12.70;99.90;;;;;;7367721;19;20049;-61
2022/10/29 07:48:48;;;;;;;25.35;16.55;;;12.70;99.90;;;;;;7371442;19;20605;-61
2022/10/29 07:51:15;;;;;;;26.42;17.45;;;12.80;99.90;;;;;;7369413;19;20021;-62
2022/10/29 07:53:41;;;;;;;26.30;18.58;;;12.80;99.90;;;;;;7369240;19;20026;-61
2022/10/29 07:56:07;;;;;;;27.73;18.15;;;12.80;99.90;;;;;;7372249;19;20021;-62
2022/10/29 07:58:34;;;;;;;27.48;18.40;;;12.90;99.90;;;;;;7372803;19;21233;-62
2022/10/29 08:01:00;;;;;;;29.20;18.63;;;12.90;99.90;;;;;;7372942;19;20018;-61
2022/10/29 08:03:27;;;;;;;26.92;18.02;;;12.90;99.90;;;;;;7365125;19;20089;-61
2022/10/29 08:05:57;;;;;;;33.10;19.17;;;13.00;99.90;;;;;;7365310;19;20014;-61
2022/10/29 08:08:24;;;;;;;22.60;17.33;;;13.00;99.90;;;;;;7373063;19;20351;-61
2022/10/29 08:10:50;;;;;;;24.48;17.77;;;13.10;99.90;;;;;;7360781;19;20019;-60
2022/10/29 08:13:17;;;;;;;28.13;20.30;;;13.20;99.90;;;;;;7371860;19;20040;-61
2022/10/29 08:15:45;;;;;;;26.20;18.55;;;13.30;99.90;;;;;;7368908;19;20022;-61
2022/10/29 08:18:17;;;;;;;27.88;18.58;;;13.30;99.90;;;;;;7372597;19;20019;-61
2022/10/29 08:20:44;;;;;;;26.58;17.60;;;13.40;99.90;;;;;;7372192;19;20018;-62
2022/10/29 08:23:12;;;;;;;27.58;17.48;;;13.40;99.90;;;;;;7367631;19;20014;-61
2022/10/29 08:25:42;;;;;;;28.23;18.27;;;13.40;99.90;;;;;;7372597;19;20029;-61
2022/10/29 08:28:11;;;;;;;29.77;19.20;;;13.50;99.90;;;;;;7370215;19;20018;-61
2022/10/29 08:30:39;;;;;;;30.15;18.63;;;13.60;99.90;;;;;;7371167;19;20018;-61
2022/10/29 08:33:05;;;;;;;28.08;18.70;;;13.70;99.90;;;;;;7369467;19;20014;-61
2022/10/29 08:35:32;;;;;;;28.95;18.27;;;13.80;99.90;;;;;;7371080;19;20019;-61
2022/10/29 08:37:58;;;;;;;27.25;17.55;;;13.90;99.90;;;;;;7369276;19;20025;-61
2022/10/29 08:40:54;;;;;;;27.30;19.17;;;14.00;99.90;;;;;;7371438;19;20532;-61
2022/10/29 08:43:30;;;;;;;23.75;17.15;;;14.10;99.90;;;;;;7367960;19;20032;-66
2022/10/29 08:46:00;;;;;;;27.63;17.40;;;14.20;99.90;;;;;;7361692;19;20029;-57
2022/10/29 08:48:39;;;;;;;25.80;16.60;;;14.30;99.90;;;;;;7369961;19;20422;-55
2022/10/29 08:51:27;;;;;;;28.73;17.25;;;14.40;99.90;;;;;;7367668;19;20449;-64
2022/10/29 08:53:56;;;;;;;23.40;16.98;;;14.60;99.90;;;;;;7370491;19;20752;-62
2022/10/29 08:56:29;;;;;;;28.60;17.48;;;14.70;99.90;;;;;;7368933;19;20018;-62
2022/10/29 08:59:05;;;;;;;26.70;16.70;;;14.80;99.90;;;;;;7369081;19;20022;-53
2022/10/29 09:01:32;;;;;;;25.00;16.35;;;15.00;99.90;;;;;;7363259;19;20182;-60
2022/10/29 09:04:02;;;;;;;22.15;16.33;;;15.20;99.90;;;;;;7349978;19;20018;-58
2022/10/29 09:06:48;;;;;;;22.88;16.10;;;15.20;99.90;;;;;;7364958;19;20040;-59
2022/10/29 09:09:43;;;;;;;25.05;15.15;;;15.30;99.90;;;;;;7368648;19;20095;-61
2022/10/29 09:12:19;;;;;;;20.92;15.80;;;15.40;99.90;;;;;;7362951;19;20043;-59
2022/10/29 09:15:13;;;;;;;23.75;13.95;;;15.40;99.90;;;;;;7365347;19;20078;-61
2022/10/29 09:18:23;;;;;;;24.10;15.63;;;15.60;99.90;;;;;;7367374;19;20525;-61
2022/10/29 09:20:51;;;;;;;20.17;13.45;;;15.70;99.90;;;;;;7366840;19;20023;-58
2022/10/29 09:23:19;;;;;;;19.38;14.40;;;15.90;99.90;;;;;;7366717;19;20014;-58
2022/10/29 09:25:52;;;;;;;20.48;14.70;;;16.00;99.90;;;;;;7360644;19;20673;-58
2022/10/29 09:28:38;;;;;;;22.65;14.43;;;16.10;99.90;;;;;;7365821;19;20663;-62
2022/10/29 09:31:18;;;;;;;21.60;14.57;;;16.10;99.90;;;;;;7364934;19;20336;-59
2022/10/29 09:33:49;;;;;;;21.23;13.88;;;16.20;99.90;;;;;;7364091;19;20386;-61
2022/10/29 09:36:19;;;;;;;25.40;15.65;;;16.30;99.90;;;;;;7365316;19;20022;-61
2022/10/29 09:39:10;;;;;;;20.08;13.80;;;16.40;99.90;;;;;;7362514;19;20022;-61
2022/10/29 09:41:37;;;;;;;20.48;14.63;;;16.60;99.90;;;;;;7364043;19;20022;-58
2022/10/29 09:44:18;;;;;;;22.80;12.75;;;16.70;99.90;;;;;;7353772;19;20018;-58
2022/10/29 09:47:03;;;;;;;19.35;13.15;;;16.80;99.90;;;;;;7362347;19;20143;-58
2022/10/29 09:50:11;;;;;;;20.45;14.13;;;16.90;99.90;;;;;;7367929;19;20692;-58
2022/10/29 09:52:43;;;;;;;21.00;13.88;;;17.10;99.90;;;;;;7365458;19;20090;-58
2022/10/29 09:55:24;;;;;;;19.20;12.70;;;17.40;99.90;;;;;;7361393;19;20038;-58
2022/10/29 09:57:51;;;;;;;22.13;12.55;;;17.60;99.90;;;;;;7365055;19;20022;-58
2022/10/29 10:00:29;;;;;;;17.98;11.85;;;17.70;99.90;;;;;;7364402;19;20018;-59
2022/10/29 10:03:04;;;;;;;17.33;11.68;;;17.80;99.90;;;;;;7364632;19;20022;-58
2022/10/29 10:05:33;;;;;;;19.25;11.65;;;17.90;99.90;;;;;;7361888;19;20093;-58
2022/10/29 10:08:13;;;;;;;19.17;11.25;;;18.10;99.90;;;;;;7363071;19;20030;-59
2022/10/29 10:10:58;;;;;;;18.65;10.15;;;18.30;99.90;;;;;;7365917;19;20085;-58
2022/10/29 10:13:31;;;;;;;18.65;11.38;;;18.50;99.90;;;;;;7362833;19;20059;-59
2022/10/29 10:15:59;;;;;;;20.42;10.70;;;18.60;99.90;;;;;;7363531;19;20022;-58
2022/10/29 10:18:38;;;;;;;16.45;10.70;;;18.80;99.90;;;;;;7364247;19;20029;-58
2022/10/29 10:21:22;;;;;;;20.15;10.82;;;18.90;99.90;;;;;;7366935;19;20027;-58
2022/10/29 10:23:54;;;;;;;18.92;9.77;;;19.00;99.90;;;;;;7369676;19;20404;-62
2022/10/29 10:26:35;;;;;;;16.55;10.30;;;19.00;99.90;;;;;;7366605;19;20086;-62
2022/10/29 10:29:03;;;;;;;;;;;19.50;99.90;;;;;;7374955;19;20026;-59
2022/10/29 10:31:30;;;;;;;18.70;11.10;;;19.80;99.90;;;;;;7372899;19;19999;-62
2022/10/29 10:33:56;;;;;;;13.23;10.07;;;20.20;99.90;;;;;;7363053;19;20018;-62
2022/10/29 10:36:27;;;;;;;20.50;10.60;;;20.50;99.90;;;;;;7367506;19;20031;-62
2022/10/29 10:38:57;;;;;;;21.25;10.25;;;21.00;99.90;;;;;;7373616;19;20014;-62
2022/10/29 10:41:27;;;;;;;16.50;10.43;;;21.30;99.90;;;;;;7371325;19;20500;-62
2022/10/29 10:44:04;;;;;;;18.13;10.40;;;21.70;99.90;;;;;;7372299;19;20565;-62
2022/10/29 10:46:34;;;;;;;15.75;10.48;;;22.20;99.90;;;;;;7367934;19;20018;-62
2022/10/29 10:49:15;;;;;;;15.88;9.27;;;22.40;99.90;;;;;;7366513;19;20598;-58
2022/10/29 10:51:43;;;;;;;;;;;22.20;99.90;;;;;;7371874;19;20022;-58
2022/10/29 10:54:26;;;;;;;16.42;9.38;;;22.00;99.90;;;;;;7369219;19;19922;-57
2022/10/29 10:57:01;;;;;;;15.18;11.00;;;21.90;99.90;;;;;;7371061;19;20873;-61
2022/10/29 10:59:45;;;;;;;16.95;9.40;;;21.60;99.90;;;;;;7370216;19;20018;-60
2022/10/29 11:02:31;;;;;;;16.58;10.05;;;21.50;99.90;;;;;;7375011;19;20037;-57
2022/10/29 11:05:27;;;;;;;18.88;10.00;;;21.10;99.90;;;;;;7368076;19;20018;-57
2022/10/29 11:08:16;;;;;;;16.65;9.50;;;20.90;99.90;;;;;;7372639;19;20021;-59
2022/10/29 11:10:53;;;;;;;16.80;10.02;;;20.50;99.90;;;;;;7371302;19;20377;-61
2022/10/29 11:13:28;;;;;;;21.05;10.82;;;20.40;99.90;;;;;;7367682;19;20520;-57
2022/10/29 11:16:07;;;;;;;22.95;11.43;;;20.40;99.90;;;;;;7368155;19;20018;-58
2022/10/29 11:19:00;;;;;;;16.25;10.20;;;20.40;99.90;;;;;;7366739;19;20018;-57
2022/10/29 11:21:37;;;;;;;21.50;10.23;;;20.30;99.90;;;;;;7367021;19;20021;-57
2022/10/29 11:24:17;;;;;;;16.73;11.38;;;20.20;99.90;;;;;;7365105;19;20508;-57
2022/10/29 11:26:48;;;;;;;18.30;11.20;;;20.30;99.90;;;;;;7365430;19;20107;-61
2022/10/29 11:29:37;;;;;;;19.83;12.45;;;20.50;99.90;;;;;;7366148;19;20022;-58
2022/10/29 11:32:25;;;;;;;21.10;13.95;;;20.50;99.90;;;;;;7367401;19;20355;-57
2022/10/29 11:35:14;;;;;;;18.30;10.43;;;20.60;99.90;;;;;;7364725;19;20047;-57
2022/10/29 11:37:43;;;;;;;15.05;10.00;;;20.70;99.90;;;;;;7365934;19;20341;-57
2022/10/29 11:40:16;;;;;;;17.10;10.65;;;20.60;99.90;;;;;;7362502;19;20354;-58
2022/10/29 11:42:43;;;;;;;17.02;10.35;;;20.60;99.90;;;;;;7365186;19;20011;-57
2022/10/29 11:45:14;;;;;;;18.30;10.60;;;20.60;99.90;;;;;;7364190;19;20022;-57
2022/10/29 11:47:59;;;;;;;19.52;11.07;;;20.60;99.90;;;;;;7365669;19;20010;-58
2022/10/29 11:50:40;;;;;;;16.40;10.45;;;20.90;99.90;;;;;;7364048;19;20478;-58
2022/10/29 11:53:33;;;;;;;17.60;10.85;;;21.30;99.90;;;;;;7364311;19;20073;-58
2022/10/29 11:56:24;;;;;;;20.40;10.93;;;21.90;99.90;;;;;;7361590;19;20018;-57
2022/10/29 11:59:00;;;;;;;19.23;10.18;;;22.80;99.90;;;;;;7366993;19;20022;-52
2022/10/29 12:01:38;;;;;;;14.52;9.75;;;23.80;99.90;;;;;;7366466;19;20399;-53
2022/10/29 12:04:26;;;;;;;21.60;15.20;;;24.40;99.90;;;;;;7366107;19;20027;-57
2022/10/29 12:07:21;;;;;;;50.95;44.97;;;24.90;99.90;;;;;;7363117;19;20069;-56
2022/10/29 12:09:54;;;;;;;21.58;9.90;;;25.60;99.90;;;;;;7365405;19;20612;-50
2022/10/29 12:12:26;;;;;;;32.10;23.98;;;25.50;99.90;;;;;;7366945;19;20025;-52
2022/10/29 12:15:21;;;;;;;20.77;10.70;;;24.80;99.90;;;;;;7366400;19;20011;-53
2022/10/29 12:17:59;;;;;;;16.48;9.63;;;24.30;99.90;;;;;;7362447;19;20581;-50
2022/10/29 12:20:37;;;;;;;27.58;22.20;;;25.10;99.90;;;;;;7369491;19;20018;-49
2022/10/29 12:23:12;;;;;;;29.08;18.73;;;25.50;99.90;;;;;;7369582;19;20018;-51
2022/10/29 12:26:03;;;;;;;18.05;10.38;;;25.30;99.90;;;;;;7369537;19;20600;-56
2022/10/29 12:28:41;;;;;;;21.73;12.85;;;25.30;99.90;;;;;;7370672;19;20025;-58
2022/10/29 12:31:18;;;;;;;16.90;11.73;;;25.10;99.90;;;;;;7373279;19;20039;-61
2022/10/29 12:33:51;;;;;;;15.40;10.23;;;24.70;99.90;;;;;;7370591;19;20019;-51
2022/10/29 12:36:42;;;;;;;16.30;10.05;;;24.10;99.90;;;;;;7373068;19;20025;-52
2022/10/29 12:39:26;;;;;;;14.93;9.93;;;23.50;99.90;;;;;;7371410;19;20037;-52
2022/10/29 12:41:59;;;;;;;32.55;25.90;;;22.90;99.90;;;;;;7364865;19;20025;-57
2022/10/29 12:44:52;;;;;;;19.70;10.43;;;22.50;99.90;;;;;;7370874;19;20011;-62
2022/10/29 12:47:24;;;;;;;17.02;9.57;;;22.00;99.90;;;;;;7363136;19;20047;-58
2022/10/29 12:50:15;;;;;;;19.13;10.35;;;21.80;99.90;;;;;;7368978;19;20026;-57
2022/10/29 12:53:00;;;;;;;13.15;9.70;;;21.60;99.90;;;;;;7373127;19;20043;-58